sensor_id;sensor_type;location;lat;lon;timestamp;pressure;altitude;pressure_sealevel;temperature;humidity
74163;BME280;62515;52.758;5.076;2023-06-14T00:02:10;101733.59;;;18.29;100.00
74163;BME280;62515;52.758;5.076;2023-06-14T00:04:36;101722.94;;;18.27;100.00
74163;BME280;62515;52.758;5.076;2023-06-14T00:07:04;101740.13;;;18.26;100.00
74163;BME280;62515;52.758;5.076;2023-06-14T00:09:31;101731.56;;;18.12;100.00
74163;BME280;62515;52.758;5.076;2023-06-14T00:11:57;101737.97;;;18.20;100.00
74163;BME280;62515;52.758;5.076;2023-06-14T00:14:24;101731.44;;;18.13;100.00
74163;BME280;62515;52.758;5.076;2023-06-14T00:16:52;101710.13;;;18.01;100.00
74163;BME280;62515;52.758;5.076;2023-06-14T00:19:19;101700.19;;;18.01;100.00
74163;BME280;62515;52.758;5.076;2023-06-14T00:21:45;101734.00;;;18.24;100.00
74163;BME280;62515;52.758;5.076;2023-06-14T00:24:12;101731.59;;;18.21;100.00
74163;BME280;62515;52.758;5.076;2023-06-14T00:26:39;101733.84;;;18.16;100.00
74163;BME280;62515;52.758;5.076;2023-06-14T00:29:06;101732.41;;;18.12;100.00
74163;BME280;62515;52.758;5.076;2023-06-14T00:31:32;101693.03;;;17.81;100.00
74163;BME280;62515;52.758;5.076;2023-06-14T00:34:00;101740.19;;;18.06;100.00
74163;BME280;62515;52.758;5.076;2023-06-14T00:36:28;101730.09;;;17.98;100.00
74163;BME280;62515;52.758;5.076;2023-06-14T00:38:55;101736.19;;;18.00;100.00
74163;BME280;62515;52.758;5.076;2023-06-14T00:41:21;101694.09;;;17.69;100.00
74163;BME280;62515;52.758;5.076;2023-06-14T00:43:48;101735.59;;;17.87;100.00
74163;BME280;62515;52.758;5.076;2023-06-14T00:46:15;101738.06;;;17.79;100.00
74163;BME280;62515;52.758;5.076;2023-06-14T00:48:42;101697.53;;;17.50;100.00
74163;BME280;62515;52.758;5.076;2023-06-14T00:51:10;101739.88;;;17.69;100.00
74163;BME280;62515;52.758;5.076;2023-06-14T00:53:37;101747.28;;;17.76;100.00
74163;BME280;62515;52.758;5.076;2023-06-14T00:56:04;101740.06;;;17.77;100.00
74163;BME280;62515;52.758;5.076;2023-06-14T00:58:31;101744.97;;;17.72;100.00
74163;BME280;62515;52.758;5.076;2023-06-14T01:00:58;101701.72;;;17.43;100.00
74163;BME280;62515;52.758;5.076;2023-06-14T01:03:25;101742.44;;;17.70;100.00
74163;BME280;62515;52.758;5.076;2023-06-14T01:05:58;101722.34;;;17.54;100.00
74163;BME280;62515;52.758;5.076;2023-06-14T01:08:33;101740.94;;;17.57;100.00
74163;BME280;62515;52.758;5.076;2023-06-14T01:11:07;101739.72;;;17.50;100.00
74163;BME280;62515;52.758;5.076;2023-06-14T01:13:38;101738.75;;;17.51;100.00
74163;BME280;62515;52.758;5.076;2023-06-14T01:16:07;101737.56;;;17.44;100.00
74163;BME280;62515;52.758;5.076;2023-06-14T01:18:34;101740.25;;;17.44;100.00
74163;BME280;62515;52.758;5.076;2023-06-14T01:21:01;101736.13;;;17.40;100.00
74163;BME280;62515;52.758;5.076;2023-06-14T01:23:29;101742.03;;;17.34;100.00
74163;BME280;62515;52.758;5.076;2023-06-14T01:25:58;101743.88;;;17.33;100.00
74163;BME280;62515;52.758;5.076;2023-06-14T01:28:26;101734.13;;;17.32;100.00
74163;BME280;62515;52.758;5.076;2023-06-14T01:30:54;101729.09;;;17.27;100.00
74163;BME280;62515;52.758;5.076;2023-06-14T01:33:22;101735.94;;;17.32;100.00
74163;BME280;62515;52.758;5.076;2023-06-14T01:35:51;101733.03;;;17.23;100.00
74163;BME280;62515;52.758;5.076;2023-06-14T01:38:20;101738.84;;;17.19;100.00
74163;BME280;62515;52.758;5.076;2023-06-14T01:40:49;101740.31;;;17.12;100.00
74163;BME280;62515;52.758;5.076;2023-06-14T01:43:18;101731.81;;;17.07;100.00
74163;BME280;62515;52.758;5.076;2023-06-14T01:45:47;101733.81;;;17.14;100.00
74163;BME280;62515;52.758;5.076;2023-06-14T01:48:15;101741.19;;;17.12;100.00
74163;BME280;62515;52.758;5.076;2023-06-14T01:50:42;101749.38;;;17.11;100.00
74163;BME280;62515;52.758;5.076;2023-06-14T01:53:09;101741.44;;;17.09;100.00
74163;BME280;62515;52.758;5.076;2023-06-14T01:55:36;101727.94;;;17.00;100.00
74163;BME280;62515;52.758;5.076;2023-06-14T01:58:07;101743.31;;;16.98;100.00
74163;BME280;62515;52.758;5.076;2023-06-14T02:00:33;101741.91;;;16.94;100.00
74163;BME280;62515;52.758;5.076;2023-06-14T02:03:00;101746.78;;;16.89;100.00
74163;BME280;62515;52.758;5.076;2023-06-14T02:05:27;101745.72;;;16.80;100.00
74163;BME280;62515;52.758;5.076;2023-06-14T02:07:54;101753.56;;;16.72;100.00
74163;BME280;62515;52.758;5.076;2023-06-14T02:10:21;101750.53;;;16.65;100.00
74163;BME280;62515;52.758;5.076;2023-06-14T02:12:47;101717.94;;;16.48;100.00
74163;BME280;62515;52.758;5.076;2023-06-14T02:15:16;101743.81;;;16.71;100.00
74163;BME280;62515;52.758;5.076;2023-06-14T02:17:43;101746.25;;;16.74;100.00
74163;BME280;62515;52.758;5.076;2023-06-14T02:20:11;101742.56;;;16.75;100.00
74163;BME280;62515;52.758;5.076;2023-06-14T02:22:38;101734.19;;;16.57;100.00
74163;BME280;62515;52.758;5.076;2023-06-14T02:25:07;101744.69;;;16.60;100.00
74163;BME280;62515;52.758;5.076;2023-06-14T02:27:34;101710.88;;;16.36;100.00
74163;BME280;62515;52.758;5.076;2023-06-14T02:30:03;101739.69;;;16.56;100.00
74163;BME280;62515;52.758;5.076;2023-06-14T02:32:33;101736.53;;;16.40;100.00
74163;BME280;62515;52.758;5.076;2023-06-14T02:35:00;101726.53;;;16.31;100.00
74163;BME280;62515;52.758;5.076;2023-06-14T02:37:26;101753.75;;;16.37;100.00
74163;BME280;62515;52.758;5.076;2023-06-14T02:39:53;101748.47;;;16.36;100.00
74163;BME280;62515;52.758;5.076;2023-06-14T02:42:20;101737.53;;;16.28;100.00
74163;BME280;62515;52.758;5.076;2023-06-14T02:44:46;101756.44;;;16.26;100.00
74163;BME280;62515;52.758;5.076;2023-06-14T02:47:13;101742.28;;;16.24;100.00
74163;BME280;62515;52.758;5.076;2023-06-14T02:49:44;101740.56;;;16.23;100.00
74163;BME280;62515;52.758;5.076;2023-06-14T02:52:11;101744.72;;;16.27;100.00
74163;BME280;62515;52.758;5.076;2023-06-14T02:54:37;101744.97;;;16.24;100.00
74163;BME280;62515;52.758;5.076;2023-06-14T02:57:05;101743.50;;;16.20;100.00
74163;BME280;62515;52.758;5.076;2023-06-14T02:59:33;101745.13;;;16.11;100.00
74163;BME280;62515;52.758;5.076;2023-06-14T03:02:00;101751.34;;;16.12;100.00
74163;BME280;62515;52.758;5.076;2023-06-14T03:04:26;101754.13;;;16.10;100.00
74163;BME280;62515;52.758;5.076;2023-06-14T03:06:55;101751.22;;;16.13;100.00
74163;BME280;62515;52.758;5.076;2023-06-14T03:09:22;101758.28;;;16.14;100.00
74163;BME280;62515;52.758;5.076;2023-06-14T03:11:49;101755.09;;;16.09;100.00
74163;BME280;62515;52.758;5.076;2023-06-14T03:14:16;101763.06;;;16.11;100.00
74163;BME280;62515;52.758;5.076;2023-06-14T03:16:43;101740.75;;;15.99;100.00
74163;BME280;62515;52.758;5.076;2023-06-14T03:19:12;101755.84;;;16.00;100.00
74163;BME280;62515;52.758;5.076;2023-06-14T03:21:40;101768.06;;;16.04;100.00
74163;BME280;62515;52.758;5.076;2023-06-14T03:24:08;101762.69;;;16.04;100.00
74163;BME280;62515;52.758;5.076;2023-06-14T03:26:35;101758.91;;;16.07;100.00
74163;BME280;62515;52.758;5.076;2023-06-14T03:29:01;101770.50;;;16.07;100.00
74163;BME280;62515;52.758;5.076;2023-06-14T03:31:28;101771.22;;;16.09;100.00
74163;BME280;62515;52.758;5.076;2023-06-14T03:33:55;101769.28;;;16.11;100.00
74163;BME280;62515;52.758;5.076;2023-06-14T03:36:22;101767.94;;;16.06;100.00
74163;BME280;62515;52.758;5.076;2023-06-14T03:38:49;101783.44;;;16.13;100.00
74163;BME280;62515;52.758;5.076;2023-06-14T03:41:18;101778.06;;;16.13;100.00
74163;BME280;62515;52.758;5.076;2023-06-14T03:43:45;101780.28;;;16.08;100.00
74163;BME280;62515;52.758;5.076;2023-06-14T03:46:13;101772.31;;;16.07;100.00
74163;BME280;62515;52.758;5.076;2023-06-14T03:48:39;101755.72;;;15.91;100.00
74163;BME280;62515;52.758;5.076;2023-06-14T03:51:07;101784.16;;;16.04;100.00
74163;BME280;62515;52.758;5.076;2023-06-14T03:53:33;101770.03;;;16.02;100.00
74163;BME280;62515;52.758;5.076;2023-06-14T03:56:00;101789.41;;;16.17;100.00
74163;BME280;62515;52.758;5.076;2023-06-14T03:58:38;101786.38;;;16.21;100.00
74163;BME280;62515;52.758;5.076;2023-06-14T04:01:05;101775.88;;;16.18;100.00
74163;BME280;62515;52.758;5.076;2023-06-14T04:03:32;101762.19;;;16.10;100.00
74163;BME280;62515;52.758;5.076;2023-06-14T04:06:00;101784.28;;;16.25;100.00
74163;BME280;62515;52.758;5.076;2023-06-14T04:08:27;101792.56;;;16.33;100.00
74163;BME280;62515;52.758;5.076;2023-06-14T04:10:54;101796.47;;;16.40;100.00
74163;BME280;62515;52.758;5.076;2023-06-14T04:13:21;101798.19;;;16.41;100.00
74163;BME280;62515;52.758;5.076;2023-06-14T04:15:49;101805.00;;;16.45;100.00
74163;BME280;62515;52.758;5.076;2023-06-14T04:18:22;101805.88;;;16.46;100.00
74163;BME280;62515;52.758;5.076;2023-06-14T04:20:50;101802.47;;;16.44;100.00
74163;BME280;62515;52.758;5.076;2023-06-14T04:23:17;101811.00;;;16.49;100.00
74163;BME280;62515;52.758;5.076;2023-06-14T04:25:45;101818.09;;;16.50;100.00
74163;BME280;62515;52.758;5.076;2023-06-14T04:28:12;101811.28;;;16.57;100.00
74163;BME280;62515;52.758;5.076;2023-06-14T04:30:39;101819.81;;;16.62;100.00
74163;BME280;62515;52.758;5.076;2023-06-14T04:33:08;101819.28;;;16.68;100.00
74163;BME280;62515;52.758;5.076;2023-06-14T04:35:35;101816.13;;;16.74;100.00
74163;BME280;62515;52.758;5.076;2023-06-14T04:38:03;101809.81;;;16.64;100.00
74163;BME280;62515;52.758;5.076;2023-06-14T04:40:29;101812.69;;;16.72;100.00
74163;BME280;62515;52.758;5.076;2023-06-14T04:42:56;101815.28;;;16.73;100.00
74163;BME280;62515;52.758;5.076;2023-06-14T04:45:23;101818.06;;;16.72;100.00
74163;BME280;62515;52.758;5.076;2023-06-14T04:47:50;101807.22;;;16.62;100.00
74163;BME280;62515;52.758;5.076;2023-06-14T04:50:20;101824.19;;;16.74;100.00
74163;BME280;62515;52.758;5.076;2023-06-14T04:52:46;101824.66;;;16.79;100.00
74163;BME280;62515;52.758;5.076;2023-06-14T04:55:13;101830.53;;;16.84;100.00
74163;BME280;62515;52.758;5.076;2023-06-14T04:57:40;101825.72;;;16.88;100.00
74163;BME280;62515;52.758;5.076;2023-06-14T05:00:09;101822.56;;;16.94;100.00
74163;BME280;62515;52.758;5.076;2023-06-14T05:02:36;101828.50;;;16.97;100.00
74163;BME280;62515;52.758;5.076;2023-06-14T05:05:05;101801.94;;;16.83;100.00
74163;BME280;62515;52.758;5.076;2023-06-14T05:07:34;101827.28;;;17.01;100.00
74163;BME280;62515;52.758;5.076;2023-06-14T05:10:01;101818.88;;;16.95;100.00
74163;BME280;62515;52.758;5.076;2023-06-14T05:12:28;101824.34;;;17.04;100.00
74163;BME280;62515;52.758;5.076;2023-06-14T05:14:54;101832.16;;;17.07;100.00
74163;BME280;62515;52.758;5.076;2023-06-14T05:17:22;101820.69;;;17.05;100.00
74163;BME280;62515;52.758;5.076;2023-06-14T05:19:49;101832.63;;;17.12;100.00
74163;BME280;62515;52.758;5.076;2023-06-14T05:22:15;101826.41;;;17.12;100.00
74163;BME280;62515;52.758;5.076;2023-06-14T05:24:43;101836.63;;;17.18;100.00
74163;BME280;62515;52.758;5.076;2023-06-14T05:27:10;101795.91;;;16.91;100.00
74163;BME280;62515;52.758;5.076;2023-06-14T05:29:37;101835.78;;;17.17;100.00
74163;BME280;62515;52.758;5.076;2023-06-14T05:32:04;101838.97;;;17.22;100.00
74163;BME280;62515;52.758;5.076;2023-06-14T05:34:31;101836.28;;;17.22;100.00
74163;BME280;62515;52.758;5.076;2023-06-14T05:36:57;101828.72;;;17.16;100.00
74163;BME280;62515;52.758;5.076;2023-06-14T05:39:24;101842.63;;;17.21;100.00
74163;BME280;62515;52.758;5.076;2023-06-14T05:41:52;101835.25;;;17.23;100.00
74163;BME280;62515;52.758;5.076;2023-06-14T05:44:19;101837.69;;;17.26;100.00
74163;BME280;62515;52.758;5.076;2023-06-14T05:46:45;101832.81;;;17.32;100.00
74163;BME280;62515;52.758;5.076;2023-06-14T05:49:12;101843.19;;;17.36;100.00
74163;BME280;62515;52.758;5.076;2023-06-14T05:51:39;101840.88;;;17.32;100.00
74163;BME280;62515;52.758;5.076;2023-06-14T05:54:06;101858.06;;;17.40;100.00
74163;BME280;62515;52.758;5.076;2023-06-14T05:56:32;101851.00;;;17.39;100.00
74163;BME280;62515;52.758;5.076;2023-06-14T05:59:00;101853.28;;;17.44;100.00
74163;BME280;62515;52.758;5.076;2023-06-14T06:01:27;101848.50;;;17.47;100.00
74163;BME280;62515;52.758;5.076;2023-06-14T06:03:54;101846.53;;;17.49;100.00
74163;BME280;62515;52.758;5.076;2023-06-14T06:06:21;101848.84;;;17.54;100.00
74163;BME280;62515;52.758;5.076;2023-06-14T06:08:47;101853.88;;;17.58;100.00
74163;BME280;62515;52.758;5.076;2023-06-14T06:11:14;101858.50;;;17.56;100.00
74163;BME280;62515;52.758;5.076;2023-06-14T06:13:41;101864.97;;;17.65;100.00
74163;BME280;62515;52.758;5.076;2023-06-14T06:16:09;101857.53;;;17.57;100.00
74163;BME280;62515;52.758;5.076;2023-06-14T06:18:36;101861.28;;;17.66;100.00
74163;BME280;62515;52.758;5.076;2023-06-14T06:21:03;101861.50;;;17.74;100.00
74163;BME280;62515;52.758;5.076;2023-06-14T06:23:30;101866.63;;;17.77;100.00
74163;BME280;62515;52.758;5.076;2023-06-14T06:25:57;101859.13;;;17.81;100.00
74163;BME280;62515;52.758;5.076;2023-06-14T06:28:23;101864.69;;;17.89;100.00
74163;BME280;62515;52.758;5.076;2023-06-14T06:30:50;101868.41;;;17.88;100.00
74163;BME280;62515;52.758;5.076;2023-06-14T06:33:18;101864.09;;;17.85;100.00
74163;BME280;62515;52.758;5.076;2023-06-14T06:35:45;101868.19;;;18.00;100.00
74163;BME280;62515;52.758;5.076;2023-06-14T06:38:12;101865.03;;;17.95;100.00
74163;BME280;62515;52.758;5.076;2023-06-14T06:40:38;101876.59;;;18.07;100.00
74163;BME280;62515;52.758;5.076;2023-06-14T06:43:05;101880.19;;;18.17;100.00
74163;BME280;62515;52.758;5.076;2023-06-14T06:45:40;101883.66;;;18.28;100.00
74163;BME280;62515;52.758;5.076;2023-06-14T06:48:07;101891.34;;;18.33;100.00
74163;BME280;62515;52.758;5.076;2023-06-14T06:50:35;101892.19;;;18.34;100.00
74163;BME280;62515;52.758;5.076;2023-06-14T06:53:01;101896.59;;;18.35;100.00
74163;BME280;62515;52.758;5.076;2023-06-14T06:55:28;101892.31;;;18.53;100.00
74163;BME280;62515;52.758;5.076;2023-06-14T06:57:55;101880.44;;;18.65;100.00
74163;BME280;62515;52.758;5.076;2023-06-14T07:00:22;101889.28;;;18.86;100.00
74163;BME280;62515;52.758;5.076;2023-06-14T07:02:51;101891.00;;;18.87;100.00
74163;BME280;62515;52.758;5.076;2023-06-14T07:05:18;101887.47;;;18.96;100.00
74163;BME280;62515;52.758;5.076;2023-06-14T07:07:46;101891.78;;;19.08;100.00
74163;BME280;62515;52.758;5.076;2023-06-14T07:10:13;101893.66;;;19.27;100.00
74163;BME280;62515;52.758;5.076;2023-06-14T07:12:40;101891.97;;;19.45;100.00
74163;BME280;62515;52.758;5.076;2023-06-14T07:15:07;101866.69;;;19.46;100.00
74163;BME280;62515;52.758;5.076;2023-06-14T07:17:34;101892.72;;;19.66;100.00
74163;BME280;62515;52.758;5.076;2023-06-14T07:20:01;101888.56;;;19.81;100.00
74163;BME280;62515;52.758;5.076;2023-06-14T07:22:28;101899.03;;;20.04;100.00
74163;BME280;62515;52.758;5.076;2023-06-14T07:24:56;101898.34;;;20.58;100.00
74163;BME280;62515;52.758;5.076;2023-06-14T07:27:23;101898.00;;;21.25;100.00
74163;BME280;62515;52.758;5.076;2023-06-14T07:29:49;101894.53;;;21.32;100.00
74163;BME280;62515;52.758;5.076;2023-06-14T07:32:16;101908.53;;;21.28;100.00
74163;BME280;62515;52.758;5.076;2023-06-14T07:34:43;101902.09;;;21.47;100.00
74163;BME280;62515;52.758;5.076;2023-06-14T07:37:09;101897.31;;;21.41;100.00
74163;BME280;62515;52.758;5.076;2023-06-14T07:39:36;101899.31;;;21.56;100.00
74163;BME280;62515;52.758;5.076;2023-06-14T07:42:05;101901.41;;;21.98;100.00
74163;BME280;62515;52.758;5.076;2023-06-14T07:44:32;101913.78;;;22.52;100.00
74163;BME280;62515;52.758;5.076;2023-06-14T07:46:59;101907.97;;;23.14;100.00
74163;BME280;62515;52.758;5.076;2023-06-14T07:49:26;101919.03;;;23.29;100.00
74163;BME280;62515;52.758;5.076;2023-06-14T07:51:53;101917.53;;;23.34;100.00
74163;BME280;62515;52.758;5.076;2023-06-14T07:54:20;101925.44;;;23.86;100.00
74163;BME280;62515;52.758;5.076;2023-06-14T07:56:47;101915.22;;;23.64;100.00
74163;BME280;62515;52.758;5.076;2023-06-14T07:59:15;101910.16;;;23.93;100.00
74163;BME280;62515;52.758;5.076;2023-06-14T08:01:41;101914.84;;;24.39;100.00
74163;BME280;62515;52.758;5.076;2023-06-14T08:04:08;101929.19;;;24.88;100.00
74163;BME280;62515;52.758;5.076;2023-06-14T08:06:35;101924.69;;;24.57;100.00
74163;BME280;62515;52.758;5.076;2023-06-14T08:09:02;101927.06;;;25.07;100.00
74163;BME280;62515;52.758;5.076;2023-06-14T08:11:29;101937.22;;;25.52;100.00
74163;BME280;62515;52.758;5.076;2023-06-14T08:13:56;101933.44;;;25.53;100.00
74163;BME280;62515;52.758;5.076;2023-06-14T08:16:24;101925.22;;;25.83;96.22
74163;BME280;62515;52.758;5.076;2023-06-14T08:18:51;101931.28;;;25.71;95.32
74163;BME280;62515;52.758;5.076;2023-06-14T08:21:18;101937.78;;;26.44;99.96
74163;BME280;62515;52.758;5.076;2023-06-14T08:23:44;101931.31;;;26.45;100.00
74163;BME280;62515;52.758;5.076;2023-06-14T08:26:11;101923.38;;;26.50;94.10
74163;BME280;62515;52.758;5.076;2023-06-14T08:28:38;101938.28;;;26.33;94.76
74163;BME280;62515;52.758;5.076;2023-06-14T08:31:05;101938.00;;;26.87;93.47
74163;BME280;62515;52.758;5.076;2023-06-14T08:33:33;101934.44;;;26.72;89.57
74163;BME280;62515;52.758;5.076;2023-06-14T08:36:00;101941.66;;;26.50;83.13
74163;BME280;62515;52.758;5.076;2023-06-14T08:38:26;101932.63;;;26.49;84.04
74163;BME280;62515;52.758;5.076;2023-06-14T08:40:57;101949.03;;;26.79;90.14
74163;BME280;62515;52.758;5.076;2023-06-14T08:43:23;101938.50;;;26.90;90.93
74163;BME280;62515;52.758;5.076;2023-06-14T08:45:53;101916.72;;;26.97;84.61
74163;BME280;62515;52.758;5.076;2023-06-14T08:48:23;101919.34;;;27.05;85.56
74163;BME280;62515;52.758;5.076;2023-06-14T08:50:54;101931.94;;;27.78;79.60
74163;BME280;62515;52.758;5.076;2023-06-14T08:53:22;101919.91;;;27.72;70.84
74163;BME280;62515;52.758;5.076;2023-06-14T08:55:49;101944.09;;;27.96;75.26
74163;BME280;62515;52.758;5.076;2023-06-14T08:58:15;101896.84;;;27.81;68.20
74163;BME280;62515;52.758;5.076;2023-06-14T09:00:42;101934.34;;;27.87;72.19
74163;BME280;62515;52.758;5.076;2023-06-14T09:03:10;101935.97;;;28.24;71.76
74163;BME280;62515;52.758;5.076;2023-06-14T09:05:36;101944.97;;;27.97;67.35
74163;BME280;62515;52.758;5.076;2023-06-14T09:08:05;101945.09;;;28.10;67.02
74163;BME280;62515;52.758;5.076;2023-06-14T09:10:32;101933.50;;;28.36;55.67
74163;BME280;62515;52.758;5.076;2023-06-14T09:13:00;101937.38;;;28.41;63.83
74163;BME280;62515;52.758;5.076;2023-06-14T09:15:28;101944.41;;;28.29;62.52
74163;BME280;62515;52.758;5.076;2023-06-14T09:17:56;101949.22;;;27.99;65.17
74163;BME280;62515;52.758;5.076;2023-06-14T09:20:23;101937.88;;;28.58;65.29
74163;BME280;62515;52.758;5.076;2023-06-14T09:22:51;101931.59;;;28.64;64.40
74163;BME280;62515;52.758;5.076;2023-06-14T09:25:19;101942.38;;;28.66;65.47
74163;BME280;62515;52.758;5.076;2023-06-14T09:28:06;101944.16;;;28.52;64.61
74163;BME280;62515;52.758;5.076;2023-06-14T09:30:33;101951.50;;;28.73;59.52
74163;BME280;62515;52.758;5.076;2023-06-14T09:33:00;101948.59;;;28.53;58.21
74163;BME280;62515;52.758;5.076;2023-06-14T09:35:27;101946.47;;;28.21;67.46
74163;BME280;62515;52.758;5.076;2023-06-14T09:37:55;101965.19;;;27.96;60.46
74163;BME280;62515;52.758;5.076;2023-06-14T09:40:23;101954.03;;;28.74;59.25
74163;BME280;62515;52.758;5.076;2023-06-14T09:42:51;101960.13;;;28.48;55.35
74163;BME280;62515;52.758;5.076;2023-06-14T09:45:19;101956.88;;;28.32;61.16
74163;BME280;62515;52.758;5.076;2023-06-14T09:47:48;101962.56;;;28.92;54.79
74163;BME280;62515;52.758;5.076;2023-06-14T09:50:31;101960.09;;;29.11;47.93
74163;BME280;62515;52.758;5.076;2023-06-14T09:53:02;101969.97;;;28.64;55.70
74163;BME280;62515;52.758;5.076;2023-06-14T09:55:34;101966.44;;;29.11;52.20
74163;BME280;62515;52.758;5.076;2023-06-14T09:58:04;101963.22;;;29.35;57.77
74163;BME280;62515;52.758;5.076;2023-06-14T10:00:35;101963.03;;;29.56;49.79
74163;BME280;62515;52.758;5.076;2023-06-14T10:03:08;101971.16;;;29.84;49.83
74163;BME280;62515;52.758;5.076;2023-06-14T10:06:12;101967.47;;;29.51;49.31
74163;BME280;62515;52.758;5.076;2023-06-14T10:08:40;101965.22;;;29.81;53.44
74163;BME280;62515;52.758;5.076;2023-06-14T10:11:08;101962.72;;;29.99;47.59
74163;BME280;62515;52.758;5.076;2023-06-14T10:13:35;101960.59;;;30.21;49.42
74163;BME280;62515;52.758;5.076;2023-06-14T10:16:09;101960.09;;;29.51;46.46
74163;BME280;62515;52.758;5.076;2023-06-14T10:18:40;101964.28;;;29.47;50.86
74163;BME280;62515;52.758;5.076;2023-06-14T10:21:16;101953.41;;;29.13;53.48
74163;BME280;62515;52.758;5.076;2023-06-14T10:23:44;101965.28;;;29.33;53.84
74163;BME280;62515;52.758;5.076;2023-06-14T10:26:19;101963.22;;;29.35;51.43
74163;BME280;62515;52.758;5.076;2023-06-14T10:28:55;101969.84;;;29.74;49.96
74163;BME280;62515;52.758;5.076;2023-06-14T10:31:23;101960.38;;;29.83;52.95
74163;BME280;62515;52.758;5.076;2023-06-14T10:33:52;101959.16;;;30.44;51.76
74163;BME280;62515;52.758;5.076;2023-06-14T10:36:27;101962.09;;;30.63;51.01
74163;BME280;62515;52.758;5.076;2023-06-14T10:38:59;101966.75;;;30.55;48.36
74163;BME280;62515;52.758;5.076;2023-06-14T10:41:28;101958.50;;;30.62;50.47
74163;BME280;62515;52.758;5.076;2023-06-14T10:47:27;101963.72;;;30.77;53.46
74163;BME280;62515;52.758;5.076;2023-06-14T10:49:55;101960.59;;;30.27;45.13
74163;BME280;62515;52.758;5.076;2023-06-14T10:52:24;101960.38;;;30.75;48.23
74163;BME280;62515;52.758;5.076;2023-06-14T10:57:23;101952.28;;;31.50;39.78
74163;BME280;62515;52.758;5.076;2023-06-14T10:59:53;101958.25;;;31.41;38.97
74163;BME280;62515;52.758;5.076;2023-06-14T11:02:46;101959.00;;;31.10;41.44
74163;BME280;62515;52.758;5.076;2023-06-14T11:05:15;101950.66;;;30.66;42.84
74163;BME280;62515;52.758;5.076;2023-06-14T11:10:36;101951.03;;;31.78;52.35
74163;BME280;62515;52.758;5.076;2023-06-14T11:13:05;101963.78;;;31.72;42.17
74163;BME280;62515;52.758;5.076;2023-06-14T11:15:32;101958.97;;;31.17;41.66
74163;BME280;62515;52.758;5.076;2023-06-14T11:18:01;101957.78;;;31.82;40.34
74163;BME280;62515;52.758;5.076;2023-06-14T11:20:30;101947.94;;;31.23;44.56
74163;BME280;62515;52.758;5.076;2023-06-14T11:22:57;101944.72;;;31.71;40.96
74163;BME280;62515;52.758;5.076;2023-06-14T11:25:25;101950.91;;;32.47;43.37
74163;BME280;62515;52.758;5.076;2023-06-14T11:27:52;101930.75;;;32.28;34.65
74163;BME280;62515;52.758;5.076;2023-06-14T11:30:20;101916.75;;;32.05;35.26
74163;BME280;62515;52.758;5.076;2023-06-14T11:32:48;101941.09;;;32.57;35.36
74163;BME280;62515;52.758;5.076;2023-06-14T11:35:15;101938.94;;;32.10;36.65
74163;BME280;62515;52.758;5.076;2023-06-14T11:37:43;101934.97;;;32.74;36.18
74163;BME280;62515;52.758;5.076;2023-06-14T11:40:11;101912.72;;;32.69;36.12
74163;BME280;62515;52.758;5.076;2023-06-14T11:42:40;101920.56;;;32.29;38.30
74163;BME280;62515;52.758;5.076;2023-06-14T11:45:09;101931.25;;;31.63;38.00
74163;BME280;62515;52.758;5.076;2023-06-14T11:47:38;101950.59;;;31.81;39.67
74163;BME280;62515;52.758;5.076;2023-06-14T11:50:07;101919.94;;;31.39;35.57
74163;BME280;62515;52.758;5.076;2023-06-14T11:52:34;101934.09;;;31.05;35.38
74163;BME280;62515;52.758;5.076;2023-06-14T11:55:01;101938.88;;;31.60;37.26
74163;BME280;62515;52.758;5.076;2023-06-14T11:57:28;101920.66;;;31.91;36.67
74163;BME280;62515;52.758;5.076;2023-06-14T11:59:55;101940.31;;;31.70;34.96
74163;BME280;62515;52.758;5.076;2023-06-14T12:02:22;101937.44;;;32.14;38.66
74163;BME280;62515;52.758;5.076;2023-06-14T12:04:52;101943.44;;;32.29;33.50
74163;BME280;62515;52.758;5.076;2023-06-14T12:07:19;101948.53;;;32.01;35.01
74163;BME280;62515;52.758;5.076;2023-06-14T12:10:04;101930.25;;;31.06;37.70
74163;BME280;62515;52.758;5.076;2023-06-14T12:12:31;101919.25;;;31.82;36.67
74163;BME280;62515;52.758;5.076;2023-06-14T12:14:57;101943.31;;;31.61;36.31
74163;BME280;62515;52.758;5.076;2023-06-14T12:17:24;101921.56;;;32.09;34.80
74163;BME280;62515;52.758;5.076;2023-06-14T12:19:52;101897.78;;;31.90;38.84
74163;BME280;62515;52.758;5.076;2023-06-14T12:22:19;101938.44;;;31.64;36.39
74163;BME280;62515;52.758;5.076;2023-06-14T12:24:46;101909.00;;;31.26;36.95
74163;BME280;62515;52.758;5.076;2023-06-14T12:27:13;101923.91;;;31.05;38.03
74163;BME280;62515;52.758;5.076;2023-06-14T12:29:40;101910.19;;;31.43;37.54
74163;BME280;62515;52.758;5.076;2023-06-14T12:32:07;101918.81;;;31.53;37.22
74163;BME280;62515;52.758;5.076;2023-06-14T12:34:34;101894.00;;;31.22;36.87
74163;BME280;62515;52.758;5.076;2023-06-14T12:37:03;101945.22;;;30.46;37.00
74163;BME280;62515;52.758;5.076;2023-06-14T12:39:30;101924.72;;;30.42;38.20
74163;BME280;62515;52.758;5.076;2023-06-14T12:41:56;101921.69;;;30.70;40.02
74163;BME280;62515;52.758;5.076;2023-06-14T12:44:23;101934.06;;;31.12;40.48
74163;BME280;62515;52.758;5.076;2023-06-14T12:46:50;101927.28;;;31.07;39.22
74163;BME280;62515;52.758;5.076;2023-06-14T12:49:17;101932.19;;;30.99;42.63
74163;BME280;62515;52.758;5.076;2023-06-14T12:51:44;101929.59;;;31.48;39.62
74163;BME280;62515;52.758;5.076;2023-06-14T12:54:12;101931.56;;;30.97;38.54
74163;BME280;62515;52.758;5.076;2023-06-14T12:56:38;101929.53;;;30.66;37.30